createdAt,value
2022-10-12T00:01:36.814Z,2.20
2022-10-12T00:04:07.285Z,2.60
2022-10-12T00:06:35.377Z,2.60
2022-10-12T00:09:03.511Z,2.50
2022-10-12T00:11:31.803Z,2.27
2022-10-12T00:14:00.828Z,2.60
2022-10-12T00:16:31.416Z,2.23
2022-10-12T00:18:59.935Z,2.13
2022-10-12T00:21:31.643Z,2.67
2022-10-12T00:24:00.639Z,2.50
2022-10-12T00:26:30.057Z,2.40
2022-10-12T00:29:00.429Z,1.97
2022-10-12T00:31:31.043Z,2.50
2022-10-12T00:34:00.996Z,2.00
2022-10-12T00:36:32.446Z,1.93
2022-10-12T00:39:04.717Z,2.00
2022-10-12T00:41:37.013Z,2.47
2022-10-12T00:44:05.376Z,2.13
2022-10-12T00:46:38.185Z,2.00
2022-10-12T00:49:12.714Z,2.47
2022-10-12T00:51:42.949Z,2.07
2022-10-12T00:54:15.711Z,2.00
2022-10-12T00:56:49.350Z,1.93
2022-10-12T00:59:23.081Z,2.10
2022-10-12T01:01:54.991Z,2.10
2022-10-12T01:04:25.936Z,2.20
2022-10-12T01:06:56.644Z,1.90
2022-10-12T01:09:24.890Z,2.10
2022-10-12T01:11:53.125Z,2.83
2022-10-12T01:14:23.601Z,2.20
2022-10-12T01:16:59.375Z,2.00
2022-10-12T01:19:56.357Z,2.30
2022-10-12T01:22:25.933Z,2.50
2022-10-12T01:25:00.201Z,2.40
2022-10-12T01:27:41.095Z,2.03
2022-10-12T01:30:22.063Z,3.13
2022-10-12T01:33:32.571Z,1.97
2022-10-12T01:36:07.803Z,2.70
2022-10-12T01:38:49.512Z,2.43
2022-10-12T01:41:21.508Z,2.23
2022-10-12T01:43:52.113Z,2.67
2022-10-12T01:46:45.797Z,2.30
2022-10-12T01:49:18.580Z,2.27
2022-10-12T01:51:59.185Z,2.20
2022-10-12T01:54:39.895Z,2.20
2022-10-12T01:57:14.341Z,2.20
2022-10-12T01:59:52.140Z,2.40
2022-10-12T02:02:31.451Z,2.30
2022-10-12T02:05:03.747Z,2.13
2022-10-12T02:07:40.606Z,2.70
2022-10-12T02:10:13.928Z,2.30
2022-10-12T02:12:44.103Z,2.57
2022-10-12T02:15:14.508Z,2.30
2022-10-12T02:17:47.707Z,2.23
2022-10-12T02:20:21.463Z,2.33
2022-10-12T02:22:51.427Z,2.33
2022-10-12T02:25:22.887Z,2.47
2022-10-12T02:27:58.806Z,2.53
2022-10-12T02:30:27.670Z,2.40
2022-10-12T02:33:00.712Z,2.37
2022-10-12T02:35:33.625Z,2.23
2022-10-12T02:38:06.043Z,2.30
2022-10-12T02:40:39.267Z,2.40
2022-10-12T02:43:15.063Z,2.60
2022-10-12T02:45:47.442Z,2.23
2022-10-12T02:48:23.207Z,2.40
2022-10-12T02:50:57.742Z,2.13
2022-10-12T02:53:29.133Z,2.30
2022-10-12T02:56:03.854Z,2.23
2022-10-12T02:58:32.444Z,2.60
2022-10-12T03:01:00.616Z,2.10
2022-10-12T03:03:30.155Z,2.20
2022-10-12T03:05:58.726Z,2.37
2022-10-12T03:08:26.956Z,2.70
2022-10-12T03:10:55.066Z,3.00
2022-10-12T03:13:23.185Z,2.50
2022-10-12T03:15:51.247Z,2.30
2022-10-12T03:18:21.743Z,2.13
2022-10-12T03:20:51.210Z,2.50
2022-10-12T03:23:19.267Z,2.50
2022-10-12T03:25:47.382Z,2.70
2022-10-12T03:28:15.485Z,2.50
2022-10-12T03:30:46.104Z,2.23
2022-10-12T03:33:14.253Z,2.33
2022-10-12T03:35:45.256Z,2.57
2022-10-12T03:38:14.744Z,2.43
2022-10-12T03:40:45.978Z,2.33
2022-10-12T03:43:14.826Z,2.83
2022-10-12T03:45:42.909Z,3.13
2022-10-12T03:48:10.970Z,2.37
2022-10-12T03:50:39.077Z,2.90
2022-10-12T03:53:08.195Z,3.37
2022-10-12T03:55:39.849Z,2.77
2022-10-12T03:58:07.940Z,2.83
2022-10-12T04:00:38.131Z,2.50
2022-10-12T04:03:06.455Z,2.77
2022-10-12T04:05:34.619Z,2.87
2022-10-12T04:08:02.742Z,2.40
2022-10-12T04:10:32.896Z,2.87
2022-10-12T04:13:02.526Z,3.07
2022-10-12T04:15:32.757Z,2.90
2022-10-12T04:18:03.334Z,2.53
2022-10-12T04:20:33.711Z,2.80
2022-10-12T04:23:04.275Z,2.80
2022-10-12T04:25:32.397Z,2.80
2022-10-12T04:28:01.855Z,2.73
2022-10-12T04:30:29.987Z,2.80
2022-10-12T04:33:00.394Z,2.73
2022-10-12T04:35:30.866Z,2.77
2022-10-12T04:37:58.941Z,2.20
2022-10-12T04:40:29.392Z,2.50
2022-10-12T04:42:57.557Z,2.30
2022-10-12T04:45:27.045Z,2.80
2022-10-12T04:47:57.462Z,2.17
2022-10-12T04:50:29.802Z,2.63
2022-10-12T04:52:58.294Z,3.03
2022-10-12T04:55:26.450Z,3.00
2022-10-12T04:57:54.760Z,3.00
2022-10-12T05:00:22.968Z,3.00
2022-10-12T05:02:52.427Z,2.77
2022-10-12T05:05:20.552Z,2.93
2022-10-12T05:07:48.676Z,2.63
2022-10-12T05:10:16.902Z,3.10
2022-10-12T05:12:45.043Z,2.57
2022-10-12T05:15:13.133Z,3.37
2022-10-12T05:17:41.371Z,3.23
2022-10-12T05:20:12.024Z,3.42
2022-10-12T05:22:40.185Z,3.95
2022-10-12T05:25:11.121Z,3.20
2022-10-12T05:27:39.546Z,3.53
2022-10-12T05:30:09.003Z,3.73
2022-10-12T05:32:37.437Z,3.37
2022-10-12T05:35:06.306Z,3.27
2022-10-12T05:37:38.257Z,3.23
2022-10-12T05:40:09.377Z,3.70
2022-10-12T05:42:37.736Z,3.73
2022-10-12T05:45:09.088Z,2.97
2022-10-12T05:47:37.496Z,3.07
2022-10-12T05:50:06.801Z,3.57
2022-10-12T05:52:34.893Z,3.67
2022-10-12T05:55:04.531Z,3.57
2022-10-12T05:57:32.648Z,3.30
2022-10-12T06:00:02.965Z,3.60
2022-10-12T06:02:38.475Z,3.70
2022-10-12T06:05:07.567Z,3.13
2022-10-12T06:07:35.660Z,3.97
2022-10-12T06:10:05.730Z,3.80
2022-10-12T06:12:36.594Z,3.67
2022-10-12T06:15:05.333Z,3.77
2022-10-12T06:17:35.727Z,3.80
2022-10-12T06:20:06.944Z,3.50
2022-10-12T06:22:35.772Z,3.37
2022-10-12T06:25:09.400Z,3.53
2022-10-12T06:27:37.492Z,3.47
2022-10-12T06:30:08.768Z,3.70
2022-10-12T06:32:37.297Z,3.70
2022-10-12T06:35:06.343Z,3.63
2022-10-12T06:37:49.630Z,4.00
2022-10-12T06:40:20.593Z,4.03
2022-10-12T06:42:51.178Z,3.20
2022-10-12T06:45:23.200Z,3.87
2022-10-12T06:47:51.279Z,3.87
2022-10-12T06:50:21.875Z,4.13
2022-10-12T06:52:50.047Z,4.30
2022-10-12T06:55:19.981Z,4.20
2022-10-12T06:57:50.100Z,4.20
2022-10-12T07:00:18.715Z,4.00
2022-10-12T07:02:49.512Z,6.10
2022-10-12T07:05:17.820Z,8.87
2022-10-12T07:07:45.943Z,10.20
2022-10-12T07:10:14.139Z,9.83
2022-10-12T07:12:46.250Z,8.63
2022-10-12T07:15:14.406Z,6.70
2022-10-12T07:17:42.554Z,5.50
2022-10-12T07:20:13.108Z,5.87
2022-10-12T07:22:41.186Z,4.90
2022-10-12T07:25:10.149Z,5.57
2022-10-12T07:27:38.513Z,5.03
2022-10-12T07:30:13.000Z,4.97
2022-10-12T07:32:44.610Z,4.70
2022-10-12T07:35:12.763Z,4.30
2022-10-12T07:37:41.345Z,4.20
2022-10-12T07:40:12.043Z,4.50
2022-10-12T07:43:05.414Z,4.03
2022-10-12T07:45:31.783Z,4.20
2022-10-12T07:47:59.880Z,3.60
2022-10-12T07:50:30.611Z,4.43
2022-10-12T07:53:01.000Z,4.10
2022-10-12T07:55:29.126Z,4.47
2022-10-12T07:57:59.523Z,4.43
2022-10-12T08:00:27.956Z,3.73
2022-10-12T08:03:00.387Z,3.07
2022-10-12T08:05:28.643Z,3.57
2022-10-12T08:07:56.852Z,3.27
2022-10-12T08:10:25.011Z,3.70
2022-10-12T08:12:53.150Z,2.83
2022-10-12T08:15:21.378Z,4.00
2022-10-12T08:17:49.480Z,3.50
2022-10-12T08:20:20.999Z,4.57
2022-10-12T08:22:49.099Z,6.43
2022-10-12T08:25:17.359Z,4.33
2022-10-12T08:27:47.789Z,4.83
2022-10-12T08:30:16.070Z,4.37
2022-10-12T08:32:46.487Z,5.17
2022-10-12T08:35:14.644Z,4.40
2022-10-12T08:37:44.097Z,4.50
2022-10-12T08:40:16.384Z,4.60
2022-10-12T08:42:54.232Z,6.23
2022-10-12T08:45:31.547Z,5.40
2022-10-12T08:48:06.268Z,5.63
2022-10-12T08:50:42.455Z,4.80
2022-10-12T08:53:19.245Z,4.60
2022-10-12T08:55:48.022Z,5.17
2022-10-12T08:58:20.570Z,8.00
2022-10-12T09:00:51.563Z,6.57
2022-10-12T09:03:30.087Z,6.80
2022-10-12T09:06:11.575Z,3.77
2022-10-12T09:09:06.389Z,4.23
2022-10-12T09:11:46.820Z,6.87
2022-10-12T09:14:19.104Z,4.37
2022-10-12T09:16:49.497Z,4.30
2022-10-12T09:19:21.788Z,4.67
2022-10-12T09:21:52.404Z,3.77
2022-10-12T09:24:27.305Z,4.53
2022-10-12T09:27:00.507Z,4.67
2022-10-12T09:29:31.227Z,4.00
2022-10-12T09:32:17.077Z,3.67
2022-10-12T09:34:47.162Z,3.43
2022-10-12T09:37:20.390Z,3.83
2022-10-12T09:39:50.729Z,3.23
2022-10-12T09:42:18.856Z,3.17
2022-10-12T09:44:49.676Z,4.20
2022-10-12T09:47:29.557Z,4.40
2022-10-12T09:49:59.293Z,3.67
2022-10-12T09:52:31.300Z,3.80
2022-10-12T09:55:05.272Z,4.27
2022-10-12T09:57:36.446Z,3.60
2022-10-12T10:00:08.574Z,4.07
2022-10-12T10:02:50.664Z,3.40
2022-10-12T10:05:26.704Z,3.70
2022-10-12T10:08:13.456Z,3.90
2022-10-12T10:10:49.842Z,3.43
2022-10-12T10:13:18.887Z,3.50
2022-10-12T10:15:50.799Z,3.73
2022-10-12T10:18:25.705Z,3.80
2022-10-12T10:21:02.069Z,3.80
2022-10-12T10:23:34.244Z,3.93
2022-10-12T10:26:09.228Z,4.33
2022-10-12T10:28:43.202Z,3.90
2022-10-12T10:31:22.000Z,5.40
2022-10-12T10:34:13.120Z,3.60
2022-10-12T10:36:46.391Z,3.60
2022-10-12T10:39:21.856Z,3.63
2022-10-12T10:41:53.307Z,2.97
2022-10-12T10:44:30.935Z,3.13
2022-10-12T10:47:04.847Z,3.23
2022-10-12T10:49:39.533Z,3.63
2022-10-12T10:52:22.991Z,3.03
2022-10-12T10:55:06.067Z,3.57
2022-10-12T10:57:37.482Z,4.33
2022-10-12T11:00:37.195Z,2.87
2022-10-12T11:03:07.724Z,3.88
2022-10-12T11:05:39.405Z,4.07
2022-10-12T11:08:17.526Z,3.33
2022-10-12T11:10:51.403Z,3.60
2022-10-12T11:13:24.450Z,3.20
2022-10-12T11:15:58.907Z,4.10
2022-10-12T11:18:35.690Z,3.50
2022-10-12T11:21:08.595Z,3.57
2022-10-12T11:23:43.422Z,3.50
2022-10-12T11:26:27.404Z,3.43
2022-10-12T11:29:00.063Z,3.67
2022-10-12T11:31:31.794Z,4.03
2022-10-12T11:34:03.420Z,3.50
2022-10-12T11:36:34.786Z,3.70
2022-10-12T11:39:07.488Z,3.57
2022-10-12T11:42:09.344Z,3.20
2022-10-12T11:44:42.044Z,3.47
2022-10-12T11:47:17.161Z,2.37
2022-10-12T11:49:53.396Z,3.10
2022-10-12T11:52:27.829Z,3.40
2022-10-12T11:55:02.777Z,3.17
2022-10-12T11:57:35.028Z,3.23
2022-10-12T12:00:16.554Z,2.93
2022-10-12T12:02:49.215Z,2.93
2022-10-12T12:05:18.333Z,3.53
2022-10-12T12:07:49.502Z,2.83
2022-10-12T12:11:03.954Z,3.07
2022-10-12T12:13:33.085Z,2.50
2022-10-12T12:16:36.703Z,2.93
2022-10-12T12:19:34.554Z,2.93
2022-10-12T12:22:29.234Z,3.87
2022-10-12T12:25:05.520Z,2.60
2022-10-12T12:27:39.416Z,3.07
2022-10-12T12:30:32.596Z,2.27
2022-10-12T12:33:04.202Z,2.37
2022-10-12T12:35:37.786Z,2.40
2022-10-12T12:38:21.219Z,2.80
2022-10-12T12:41:01.974Z,2.30
2022-10-12T12:44:04.210Z,2.70
2022-10-12T12:50:31.243Z,2.97
2022-10-12T12:53:05.969Z,2.50
2022-10-12T12:56:00.791Z,2.97
2022-10-12T12:59:02.519Z,3.03
2022-10-12T13:01:47.005Z,1.90
2022-10-12T13:04:40.117Z,2.20
2022-10-12T13:07:46.901Z,2.30
2022-10-12T13:10:34.585Z,2.43
2022-10-12T13:13:25.870Z,2.77
2022-10-12T13:16:11.803Z,2.60
2022-10-12T13:18:50.822Z,2.10
2022-10-12T13:21:24.716Z,3.03
2022-10-12T13:24:02.245Z,2.47
2022-10-12T13:26:32.476Z,2.23
2022-10-12T13:29:02.852Z,2.37
2022-10-12T13:31:37.805Z,2.57
2022-10-12T13:34:14.107Z,2.80
2022-10-12T13:36:52.773Z,2.30
2022-10-12T13:39:24.592Z,1.90
2022-10-12T13:41:57.086Z,2.40
2022-10-12T13:44:27.977Z,2.13
2022-10-12T13:46:59.170Z,2.50
2022-10-12T13:49:29.630Z,2.30
2022-10-12T13:52:01.818Z,2.70
2022-10-12T13:54:40.820Z,1.80
2022-10-12T13:57:20.036Z,1.80
2022-10-12T13:59:52.464Z,1.90
2022-10-12T14:02:24.986Z,1.70
2022-10-12T14:04:56.568Z,1.63
2022-10-12T14:07:29.778Z,1.73
2022-10-12T14:10:03.933Z,2.23
2022-10-12T14:12:32.942Z,2.20
2022-10-12T14:15:01.875Z,1.97
2022-10-12T14:17:30.595Z,1.97
2022-10-12T14:20:17.135Z,1.77
2022-10-12T14:22:49.928Z,1.70
2022-10-12T14:25:24.339Z,2.00
2022-10-12T14:27:57.423Z,2.10
2022-10-12T14:30:29.363Z,1.77
2022-10-12T14:33:11.958Z,2.00
2022-10-12T14:35:46.658Z,2.00
2022-10-12T14:38:39.152Z,2.10
2022-10-12T14:41:34.771Z,2.10
2022-10-12T14:44:12.460Z,2.23
2022-10-12T14:46:49.296Z,2.20
2022-10-12T14:49:20.984Z,2.27
2022-10-12T14:51:49.840Z,1.60
2022-10-12T14:54:20.099Z,2.40
2022-10-12T14:56:49.702Z,2.20
2022-10-12T14:59:17.865Z,1.83
2022-10-12T15:01:51.018Z,1.93
2022-10-12T15:04:19.839Z,2.23
2022-10-12T15:06:50.841Z,2.30
2022-10-12T15:09:19.371Z,2.40
2022-10-12T15:11:48.862Z,2.30
2022-10-12T15:14:19.287Z,2.17
2022-10-12T15:16:47.402Z,2.13
2022-10-12T15:19:17.769Z,1.90
2022-10-12T15:21:45.946Z,1.80
2022-10-12T15:24:16.423Z,1.93
2022-10-12T15:26:44.571Z,1.90
2022-10-12T15:29:16.147Z,2.33
2022-10-12T15:31:50.357Z,2.10
2022-10-12T15:34:19.456Z,2.00
2022-10-12T15:36:47.760Z,2.20
2022-10-12T15:39:18.401Z,2.57
2022-10-12T15:41:46.585Z,2.13
2022-10-12T15:44:18.715Z,2.53
2022-10-12T15:46:52.709Z,2.67
2022-10-12T15:49:23.816Z,2.37
2022-10-12T15:51:55.900Z,2.50
2022-10-12T15:54:26.529Z,2.10
2022-10-12T15:56:54.654Z,1.90
2022-10-12T15:59:26.224Z,1.60
2022-10-12T16:01:56.709Z,2.07
2022-10-12T16:04:24.882Z,1.60
2022-10-12T16:06:55.042Z,2.17
2022-10-12T16:09:23.216Z,1.80
2022-10-12T16:11:51.350Z,2.00
2022-10-12T16:14:19.513Z,3.00
2022-10-12T16:16:48.930Z,2.80
2022-10-12T16:19:17.056Z,2.60
2022-10-12T16:21:45.094Z,3.80
2022-10-12T16:24:15.531Z,2.93
2022-10-12T16:26:45.116Z,5.80
2022-10-12T16:29:13.563Z,4.00
2022-10-12T16:34:12.105Z,4.43
2022-10-12T16:36:40.214Z,3.73
2022-10-12T16:39:08.834Z,3.27
2022-10-12T16:41:39.302Z,3.30
2022-10-12T16:44:07.358Z,4.00
2022-10-12T16:46:36.941Z,3.73
2022-10-12T16:49:05.245Z,3.33
2022-10-12T16:51:34.663Z,3.53
2022-10-12T16:54:05.466Z,3.67
2022-10-12T16:56:39.242Z,3.37
2022-10-12T16:59:07.757Z,3.30
2022-10-12T17:01:35.841Z,3.30
2022-10-12T17:04:04.035Z,3.30
2022-10-12T17:06:33.909Z,3.70
2022-10-12T17:09:05.394Z,3.97
2022-10-12T17:11:36.380Z,4.40
2022-10-12T17:14:04.717Z,4.47
2022-10-12T17:16:52.278Z,3.90
2022-10-12T17:19:27.296Z,4.30
2022-10-12T17:21:59.370Z,5.40
2022-10-12T17:24:32.056Z,6.50
2022-10-12T17:27:03.194Z,6.53
2022-10-12T17:29:32.334Z,8.53
2022-10-12T17:32:00.603Z,9.57
2022-10-12T17:34:34.940Z,11.50
2022-10-12T17:37:06.204Z,10.43
2022-10-12T17:39:37.987Z,10.10
2022-10-12T17:42:08.508Z,9.60
2022-10-12T17:44:39.147Z,8.93
2022-10-12T17:47:09.827Z,9.73
2022-10-12T17:49:37.963Z,10.70
2022-10-12T17:52:07.575Z,11.63
2022-10-12T17:54:35.670Z,11.67
2022-10-12T17:57:03.810Z,10.23
2022-10-12T17:59:31.915Z,8.83
2022-10-12T18:02:00.134Z,9.27
2022-10-12T18:04:28.377Z,8.00
2022-10-12T18:06:58.740Z,7.97
2022-10-12T18:09:31.460Z,8.57
2022-10-12T18:11:59.542Z,7.53
2022-10-12T18:14:27.729Z,7.37
2022-10-12T18:16:58.790Z,7.10
2022-10-12T18:19:26.940Z,7.27
2022-10-12T18:21:55.038Z,7.10
2022-10-12T18:24:23.339Z,6.87
2022-10-12T18:26:53.431Z,7.60
2022-10-12T18:29:22.551Z,7.77
2022-10-12T18:31:53.497Z,7.17
2022-10-12T18:34:21.657Z,7.50
2022-10-12T18:36:49.718Z,6.80
2022-10-12T18:39:18.009Z,5.53
2022-10-12T18:41:46.319Z,4.70
2022-10-12T18:44:16.017Z,4.80
2022-10-12T18:46:44.412Z,4.70
2022-10-12T18:49:12.863Z,5.60
2022-10-12T18:51:42.608Z,5.87
2022-10-12T18:54:16.769Z,6.67
2022-10-12T18:56:45.167Z,6.13
2022-10-12T18:59:17.991Z,6.70
2022-10-12T19:01:48.483Z,7.67
2022-10-12T19:04:16.696Z,7.60
2022-10-12T19:06:44.886Z,6.50
2022-10-12T19:09:14.681Z,6.30
2022-10-12T19:11:42.841Z,7.50
2022-10-12T19:14:14.803Z,7.63
2022-10-12T19:16:47.095Z,6.97
2022-10-12T19:19:21.187Z,6.80
2022-10-12T19:21:49.937Z,5.30
2022-10-12T19:24:19.028Z,5.43
2022-10-12T19:26:49.708Z,5.13
2022-10-12T19:29:18.151Z,4.63
2022-10-12T19:31:49.715Z,4.50
2022-10-12T19:34:19.856Z,4.53
2022-10-12T19:36:50.651Z,4.20
2022-10-12T19:39:21.021Z,4.17
2022-10-12T19:41:50.312Z,4.07
2022-10-12T19:44:19.294Z,4.30
2022-10-12T19:46:49.317Z,4.03
2022-10-12T19:49:18.782Z,4.47
2022-10-12T19:51:49.290Z,5.17
2022-10-12T19:54:17.915Z,6.70
2022-10-12T19:56:46.278Z,7.40
2022-10-12T19:59:16.893Z,6.60
2022-10-12T20:01:48.013Z,6.50
2022-10-12T20:04:20.065Z,6.30
2022-10-12T20:06:48.238Z,5.40
2022-10-12T20:09:16.560Z,5.80
2022-10-12T20:11:44.735Z,5.47
2022-10-12T20:14:12.979Z,5.50
2022-10-12T20:16:41.155Z,5.03
2022-10-12T20:19:09.328Z,4.70
2022-10-12T20:21:41.344Z,4.67
2022-10-12T20:24:12.182Z,4.73
2022-10-12T20:26:40.435Z,4.87
2022-10-12T20:29:08.519Z,4.73
2022-10-12T20:31:36.672Z,4.00
2022-10-12T20:34:06.945Z,4.30
2022-10-12T20:36:35.210Z,4.60
2022-10-12T20:39:04.970Z,4.47
2022-10-12T20:41:35.717Z,4.30
2022-10-12T20:44:03.921Z,4.40
2022-10-12T20:46:34.710Z,4.83
2022-10-12T20:49:03.836Z,4.10
2022-10-12T20:51:36.731Z,4.53
2022-10-12T20:54:09.218Z,3.97
2022-10-12T20:56:41.288Z,4.73
2022-10-12T20:59:12.335Z,5.03
2022-10-12T21:01:40.459Z,4.20
2022-10-12T21:04:10.119Z,3.87
2022-10-12T21:06:42.524Z,4.37
2022-10-12T21:09:15.980Z,4.37
2022-10-12T21:11:44.533Z,4.30
2022-10-12T21:14:13.053Z,4.50
2022-10-12T21:16:41.388Z,4.13
2022-10-12T21:19:09.575Z,3.93
2022-10-12T21:21:39.882Z,3.60
2022-10-12T21:24:08.491Z,3.83
2022-10-12T21:26:40.661Z,4.10
2022-10-12T21:29:11.723Z,3.73
2022-10-12T21:31:39.959Z,3.90
2022-10-12T21:34:08.781Z,3.50
2022-10-12T21:36:39.668Z,4.10
2022-10-12T21:39:13.428Z,3.90
2022-10-12T21:41:43.734Z,3.37
2022-10-12T21:44:12.757Z,3.60
2022-10-12T21:46:41.361Z,3.63
2022-10-12T21:49:09.493Z,3.77
2022-10-12T21:51:39.705Z,3.97
2022-10-12T21:54:08.523Z,3.57
2022-10-12T21:56:38.038Z,3.70
2022-10-12T21:59:07.970Z,4.10
2022-10-12T22:01:40.529Z,3.80
2022-10-12T22:04:12.474Z,3.63
2022-10-12T22:06:43.437Z,3.73
2022-10-12T22:09:16.964Z,3.83
2022-10-12T22:11:45.286Z,4.20
2022-10-12T22:14:19.014Z,4.23
2022-10-12T22:20:54.151Z,4.00
2022-10-12T22:23:22.732Z,4.00
2022-10-12T22:25:54.928Z,4.20
2022-10-12T22:28:23.115Z,4.50
2022-10-12T22:30:52.706Z,4.00
2022-10-12T22:33:23.367Z,4.50
2022-10-12T22:35:55.484Z,4.33
2022-10-12T22:38:26.443Z,4.20
2022-10-12T22:40:59.086Z,4.40
2022-10-12T22:43:28.345Z,4.60
2022-10-12T22:45:58.232Z,4.50
2022-10-12T22:48:27.379Z,4.87
2022-10-12T22:50:55.869Z,4.57
2022-10-12T22:53:26.302Z,4.63
2022-10-12T22:56:00.596Z,4.93
2022-10-12T22:58:29.481Z,4.60
2022-10-12T23:01:06.081Z,4.83
2022-10-12T23:03:35.233Z,4.60
2022-10-12T23:06:13.875Z,4.83
2022-10-12T23:08:42.834Z,4.10
2022-10-12T23:11:12.913Z,4.30
2022-10-12T23:13:43.405Z,4.40
2022-10-12T23:16:14.801Z,4.10
2022-10-12T23:18:43.307Z,5.50
2022-10-12T23:21:15.779Z,5.47
2022-10-12T23:23:45.139Z,4.60
2022-10-12T23:26:15.077Z,5.07
2022-10-12T23:28:43.326Z,4.63
2022-10-12T23:31:20.775Z,5.00
2022-10-12T23:33:50.066Z,4.63
2022-10-12T23:36:18.859Z,4.63
2022-10-12T23:38:47.011Z,4.53
2022-10-12T23:41:15.337Z,4.67
2022-10-12T23:43:43.511Z,4.70
2022-10-12T23:46:13.110Z,4.37
2022-10-12T23:48:44.867Z,5.17
2022-10-12T23:51:15.591Z,4.90
2022-10-12T23:53:43.700Z,4.70
2022-10-12T23:56:16.717Z,4.43
2022-10-12T23:58:47.216Z,5.30
